createdAt,value
2019-01-23T00:01:00.649Z,15.8
2019-01-23T00:02:03.097Z,15.8
2019-01-23T00:03:05.524Z,15.7
2019-01-23T00:04:07.954Z,15.8
2019-01-23T00:05:10.385Z,15.8
2019-01-23T00:06:12.548Z,15.8
2019-01-23T00:07:14.970Z,15.8
2019-01-23T00:08:17.133Z,15.9
2019-01-23T00:09:19.278Z,15.8
2019-01-23T00:10:21.706Z,15.8
2019-01-23T00:11:23.870Z,15.8
2019-01-23T00:12:25.728Z,15.8
2019-01-23T00:13:28.142Z,15.8
2019-01-23T00:14:30.285Z,15.8
2019-01-23T00:15:32.724Z,15.8
2019-01-23T00:16:35.144Z,15.8
2019-01-23T00:17:37.574Z,15.8
2019-01-23T00:18:40.004Z,15.8
2019-01-23T00:19:42.426Z,15.9
2019-01-23T00:20:44.853Z,15.8
2019-01-23T00:21:47.288Z,15.8
2019-01-23T00:22:49.723Z,15.8
2019-01-23T00:23:52.156Z,15.9
2019-01-23T00:24:54.318Z,15.8
2019-01-23T00:25:56.729Z,15.8
2019-01-23T00:26:59.162Z,15.8
2019-01-23T00:28:01.605Z,15.8
2019-01-23T00:29:04.040Z,15.9
2019-01-23T00:30:06.475Z,15.8
2019-01-23T00:31:08.642Z,15.9
2019-01-23T00:32:11.062Z,15.8
2019-01-23T00:33:13.494Z,16
2019-01-23T00:34:15.910Z,15.9
2019-01-23T00:35:18.045Z,15.9
2019-01-23T00:36:20.202Z,16
2019-01-23T00:37:22.365Z,16
2019-01-23T00:38:25.424Z,16.1
2019-01-23T00:39:27.310Z,16
2019-01-23T00:40:29.166Z,15.9
2019-01-23T00:41:31.592Z,15.9
2019-01-23T00:42:34.032Z,16
2019-01-23T00:43:36.454Z,16
2019-01-23T00:44:38.895Z,16
2019-01-23T00:45:41.048Z,16.1
2019-01-23T00:46:43.484Z,15.9
2019-01-23T00:47:45.913Z,16
2019-01-23T00:48:48.085Z,16
2019-01-23T00:49:50.514Z,15.9
2019-01-23T00:50:52.946Z,16
2019-01-23T00:51:55.383Z,16.1
2019-01-23T00:52:57.534Z,16.1
2019-01-23T00:53:59.693Z,15.9
2019-01-23T00:55:01.842Z,16.1
2019-01-23T00:56:04.274Z,15.9
2019-01-23T00:57:06.700Z,16.1
2019-01-23T00:58:08.574Z,16
2019-01-23T00:59:10.741Z,15.9
2019-01-23T01:00:13.168Z,16.2
2019-01-23T01:01:15.597Z,16.1
2019-01-23T01:02:18.016Z,16
2019-01-23T01:03:20.147Z,16
2019-01-23T01:04:22.296Z,16
2019-01-23T01:05:24.454Z,16
2019-01-23T01:06:26.890Z,16.1
2019-01-23T01:07:28.774Z,16
2019-01-23T01:08:31.224Z,16.2
2019-01-23T01:09:33.674Z,16.1
2019-01-23T01:10:36.094Z,16
2019-01-23T01:11:38.524Z,16.1
2019-01-23T01:12:40.674Z,16.1
2019-01-23T01:13:42.818Z,15.9
2019-01-23T01:14:45.266Z,16.2
2019-01-23T01:15:47.407Z,15.9
2019-01-23T01:16:49.266Z,16
2019-01-23T01:17:51.448Z,16.2
2019-01-23T01:18:53.332Z,16
2019-01-23T01:19:55.490Z,16
2019-01-23T01:20:57.904Z,16.1
2019-01-23T01:22:00.061Z,16.1
2019-01-23T01:23:02.225Z,16.2
2019-01-23T01:24:04.384Z,16.1
2019-01-23T01:25:06.814Z,16.1
2019-01-23T01:26:09.229Z,16.2
2019-01-23T01:27:11.382Z,16.1
2019-01-23T01:28:13.550Z,16.2
2019-01-23T01:29:15.974Z,16.2
2019-01-23T01:30:18.396Z,16.2
2019-01-23T01:31:20.836Z,16.2
2019-01-23T01:32:22.974Z,16.2
2019-01-23T01:33:25.138Z,16.2
2019-01-23T01:34:27.298Z,16.2
2019-01-23T01:35:29.714Z,16.2
2019-01-23T01:36:32.144Z,16.2
2019-01-23T01:37:34.314Z,16.2
2019-01-23T01:38:36.468Z,16.2
2019-01-23T01:39:38.606Z,16.3
2019-01-23T01:40:40.762Z,16.3
2019-01-23T01:41:42.934Z,16.3
2019-01-23T01:42:45.114Z,16.3
2019-01-23T01:43:47.558Z,16.3
2019-01-23T01:44:49.430Z,16.3
2019-01-23T01:45:51.852Z,16.3
2019-01-23T01:46:54.282Z,16.3
2019-01-23T01:47:56.713Z,16.3
2019-01-23T01:48:59.132Z,16.3
2019-01-23T01:50:01.033Z,16.4
2019-01-23T01:51:03.454Z,16.3
2019-01-23T01:52:05.610Z,16.3
2019-01-23T01:53:08.054Z,16.2
2019-01-23T01:54:10.498Z,16.5
2019-01-23T01:55:12.935Z,16.4
2019-01-23T01:56:15.360Z,16.4
2019-01-23T01:57:17.810Z,16.4
2019-01-23T01:58:19.684Z,16.3
2019-01-23T01:59:21.845Z,16.3
2019-01-23T02:00:23.995Z,16.5
2019-01-23T02:01:26.424Z,16.4
2019-01-23T02:02:28.607Z,16.3
2019-01-23T02:03:30.906Z,16.4
2019-01-23T02:04:33.336Z,16.4
2019-01-23T02:05:35.762Z,16.4
2019-01-23T02:06:38.186Z,16.3
2019-01-23T02:07:40.612Z,16.4
2019-01-23T02:08:43.035Z,16.4
2019-01-23T02:09:46.132Z,16.5
2019-01-23T02:10:48.274Z,16.4
2019-01-23T02:11:50.415Z,16.4
2019-01-23T02:12:52.566Z,16.5
2019-01-23T02:13:55.007Z,16.4
2019-01-23T02:14:57.145Z,16.4
2019-01-23T02:15:59.567Z,16.4
2019-01-23T02:17:16.706Z,16.4
2019-01-23T02:18:18.600Z,16.4
2019-01-23T02:19:21.014Z,16.4
2019-01-23T02:20:22.881Z,16.5
2019-01-23T02:21:25.330Z,16.5
2019-01-23T02:22:27.473Z,16.5
2019-01-23T02:23:29.896Z,16.5
2019-01-23T02:24:32.320Z,16.5
2019-01-23T02:25:34.455Z,16.5
2019-01-23T02:26:36.614Z,16.5
2019-01-23T02:27:38.770Z,16.5
2019-01-23T02:28:41.194Z,16.4
2019-01-23T02:29:43.628Z,16.5
2019-01-23T02:30:46.054Z,16.5
2019-01-23T02:31:48.210Z,16.5
2019-01-23T02:32:50.353Z,16.6
2019-01-23T02:33:52.794Z,16.6
2019-01-23T02:34:54.940Z,16.6
2019-01-23T02:35:57.366Z,16.5
2019-01-23T02:36:59.794Z,16.6
2019-01-23T02:38:01.942Z,16.5
2019-01-23T02:39:04.082Z,16.5
2019-01-23T02:40:06.245Z,16.6
2019-01-23T02:41:08.678Z,16.5
2019-01-23T02:42:10.826Z,16.5
2019-01-23T02:43:12.974Z,16.6
2019-01-23T02:44:15.399Z,16.5
2019-01-23T02:45:17.550Z,16.6
2019-01-23T02:46:19.712Z,16.6
2019-01-23T02:47:21.854Z,16.6
2019-01-23T02:48:24.281Z,16.6
2019-01-23T02:49:26.714Z,16.5
2019-01-23T02:50:29.144Z,16.5
2019-01-23T02:51:31.575Z,16.5
2019-01-23T02:52:34.010Z,16.5
2019-01-23T02:53:36.171Z,16.6
2019-01-23T02:54:38.046Z,16.6
2019-01-23T02:55:40.469Z,16.6
2019-01-23T02:56:42.893Z,16.6
2019-01-23T02:57:45.312Z,16.5
2019-01-23T02:58:47.732Z,16.6
2019-01-23T02:59:50.162Z,16.5
2019-01-23T03:00:52.588Z,16.5
2019-01-23T03:01:55.006Z,16.5
2019-01-23T03:02:57.165Z,16.6
2019-01-23T03:03:59.319Z,16.6
2019-01-23T03:05:16.404Z,16.6
2019-01-23T03:06:18.831Z,16.6
2019-01-23T03:07:21.268Z,16.7
2019-01-23T03:08:23.695Z,16.6
2019-01-23T03:09:26.127Z,16.7
2019-01-23T03:10:28.561Z,16.6
2019-01-23T03:11:31.005Z,16.6
2019-01-23T03:12:33.143Z,16.7
2019-01-23T03:13:35.316Z,16.6
2019-01-23T03:14:37.743Z,16.6
2019-01-23T03:15:40.168Z,16.5
2019-01-23T03:16:42.584Z,16.6
2019-01-23T03:17:44.737Z,16.6
2019-01-23T03:18:46.875Z,16.5
2019-01-23T03:19:49.035Z,16.6
2019-01-23T03:20:51.203Z,16.6
2019-01-23T03:21:53.087Z,16.6
2019-01-23T03:22:55.515Z,16.7
2019-01-23T03:23:57.667Z,16.6
2019-01-23T03:25:00.126Z,16.6
2019-01-23T03:26:02.664Z,16.6
2019-01-23T03:27:05.085Z,16.6
2019-01-23T03:28:07.515Z,16.6
2019-01-23T03:29:09.943Z,16.7
2019-01-23T03:30:12.368Z,16.6
2019-01-23T03:31:14.529Z,16.6
2019-01-23T03:32:16.966Z,16.6
2019-01-23T03:33:19.149Z,16.6
2019-01-23T03:34:21.292Z,16.6
2019-01-23T03:35:23.733Z,16.6
2019-01-23T03:36:25.606Z,16.6
2019-01-23T03:37:28.021Z,16.7
2019-01-23T03:38:29.874Z,16.6
2019-01-23T03:39:32.353Z,16.7
2019-01-23T03:40:34.515Z,16.6
2019-01-23T03:41:36.960Z,16.6
2019-01-23T03:42:39.115Z,16.7
2019-01-23T03:43:41.539Z,16.6
2019-01-23T03:44:43.962Z,16.6
2019-01-23T03:45:46.384Z,16.7
2019-01-23T03:46:48.804Z,16.6
2019-01-23T03:47:50.985Z,16.6
2019-01-23T03:48:53.147Z,16.6
2019-01-23T03:49:55.572Z,16.7
2019-01-23T03:50:57.722Z,16.6
2019-01-23T03:51:59.589Z,16.6
2019-01-23T03:53:02.004Z,16.7
2019-01-23T03:54:04.445Z,16.7
2019-01-23T03:55:06.879Z,16.6
2019-01-23T03:56:09.086Z,16.7
2019-01-23T03:57:11.515Z,16.7
2019-01-23T03:58:13.663Z,16.6
2019-01-23T03:59:15.817Z,16.6
2019-01-23T04:00:19.028Z,16.7
2019-01-23T04:01:21.454Z,16.7
2019-01-23T04:02:23.880Z,16.7
2019-01-23T04:03:26.313Z,16.6
2019-01-23T04:04:28.737Z,16.7
2019-01-23T04:05:31.705Z,16.5
2019-01-23T04:06:34.132Z,16.6
2019-01-23T04:07:36.557Z,16.6
2019-01-23T04:08:38.704Z,16.5
2019-01-23T04:09:40.571Z,16.6
2019-01-23T04:10:43.001Z,16.4
2019-01-23T04:11:45.432Z,16.5
2019-01-23T04:12:47.874Z,16.4
2019-01-23T04:13:50.029Z,16.4
2019-01-23T04:14:52.195Z,16.3
2019-01-23T04:15:54.068Z,16.3
2019-01-23T04:16:55.938Z,16.4
2019-01-23T04:17:58.365Z,16.3
2019-01-23T04:19:00.784Z,16.2
2019-01-23T04:20:03.205Z,16.3
2019-01-23T04:21:05.631Z,16.3
2019-01-23T04:22:07.782Z,16.3
2019-01-23T04:23:10.217Z,16.3
2019-01-23T04:24:12.100Z,16.2
2019-01-23T04:25:14.231Z,16.3
2019-01-23T04:26:16.675Z,16.2
2019-01-23T04:27:19.220Z,16.2
2019-01-23T04:28:21.610Z,16.3
2019-01-23T04:29:24.046Z,16.2
2019-01-23T04:30:26.483Z,16.2
2019-01-23T04:31:28.667Z,16.2
2019-01-23T04:32:31.133Z,16.2
2019-01-23T04:33:33.580Z,16.2
2019-01-23T04:34:36.026Z,16.1
2019-01-23T04:35:38.401Z,16.2
2019-01-23T04:36:40.847Z,16.1
2019-01-23T04:37:43.407Z,16.2
2019-01-23T04:38:45.307Z,16.2
2019-01-23T04:39:47.439Z,16
2019-01-23T04:40:49.621Z,16.2
2019-01-23T04:41:51.784Z,16
2019-01-23T04:42:54.237Z,16.2
2019-01-23T04:43:56.701Z,16.1
2019-01-23T04:44:58.852Z,16.1
2019-01-23T04:46:01.031Z,16.1
2019-01-23T04:47:03.449Z,16.1
2019-01-23T04:48:05.601Z,16
2019-01-23T04:49:07.455Z,16.2
2019-01-23T04:50:09.883Z,16.1
2019-01-23T04:51:12.033Z,16.1
2019-01-23T04:52:14.165Z,16.2
2019-01-23T04:53:16.603Z,16.1
2019-01-23T04:54:18.761Z,16.1
2019-01-23T04:55:21.192Z,16.1
2019-01-23T04:56:23.633Z,16.1
2019-01-23T04:57:25.524Z,16.1
2019-01-23T04:58:27.993Z,16.1
2019-01-23T04:59:30.419Z,16.2
2019-01-23T05:00:32.544Z,16.2
2019-01-23T05:01:34.955Z,16.1
2019-01-23T05:02:37.379Z,16.1
2019-01-23T05:03:39.825Z,16.1
2019-01-23T05:04:42.251Z,15.9
2019-01-23T05:05:44.678Z,16.1
2019-01-23T05:06:47.111Z,16
2019-01-23T05:07:49.552Z,16
2019-01-23T05:08:51.983Z,16.1
2019-01-23T05:09:56.055Z,16
2019-01-23T05:10:58.485Z,16.1
2019-01-23T05:12:00.656Z,16.1
2019-01-23T05:13:03.095Z,16
2019-01-23T05:14:05.519Z,15.9
2019-01-23T05:15:07.383Z,15.9
2019-01-23T05:16:09.552Z,16
2019-01-23T05:17:11.977Z,16.1
2019-01-23T05:18:14.406Z,15.9
2019-01-23T05:19:16.828Z,16
2019-01-23T05:20:19.250Z,16
2019-01-23T05:21:21.675Z,15.9
2019-01-23T05:22:23.538Z,16
2019-01-23T05:23:25.976Z,16
2019-01-23T05:24:28.135Z,16.1
2019-01-23T05:25:30.280Z,15.9
2019-01-23T05:26:32.706Z,16
2019-01-23T05:27:36.686Z,15.9
2019-01-23T05:28:38.829Z,15.9
2019-01-23T05:29:41.246Z,16.1
2019-01-23T05:30:43.416Z,16.1
2019-01-23T05:31:45.845Z,16
2019-01-23T05:32:47.728Z,16
2019-01-23T05:33:50.151Z,16
2019-01-23T05:34:52.285Z,16.1
2019-01-23T05:35:54.720Z,16
2019-01-23T05:36:56.855Z,16
2019-01-23T05:37:58.743Z,16
2019-01-23T05:39:01.176Z,16
2019-01-23T05:40:03.594Z,15.9
2019-01-23T05:41:06.016Z,15.9
2019-01-23T05:42:08.155Z,16.1
2019-01-23T05:43:10.576Z,16.1
2019-01-23T05:44:12.993Z,16
2019-01-23T05:45:15.434Z,15.9
2019-01-23T05:46:17.588Z,15.8
2019-01-23T05:47:20.011Z,16
2019-01-23T05:48:22.163Z,15.9
2019-01-23T05:49:24.597Z,16
2019-01-23T05:50:26.733Z,16
2019-01-23T05:51:28.927Z,16
2019-01-23T05:52:31.084Z,15.8
2019-01-23T05:53:33.247Z,15.9
2019-01-23T05:54:35.676Z,15.9
2019-01-23T05:55:38.107Z,16
2019-01-23T05:56:40.534Z,15.8
2019-01-23T05:57:42.956Z,15.9
2019-01-23T05:58:45.382Z,15.9
2019-01-23T05:59:47.306Z,16
2019-01-23T06:00:49.763Z,15.9
2019-01-23T06:01:51.673Z,15.9
2019-01-23T06:02:54.115Z,15.9
2019-01-23T06:03:56.241Z,16
2019-01-23T06:04:58.390Z,15.9
2019-01-23T06:06:00.556Z,15.9
2019-01-23T06:07:02.992Z,16
2019-01-23T06:08:05.437Z,15.8
2019-01-23T06:09:07.592Z,16
2019-01-23T06:10:10.017Z,15.9
2019-01-23T06:11:12.442Z,16
2019-01-23T06:12:14.916Z,15.9
2019-01-23T06:13:17.354Z,16
2019-01-23T06:14:19.777Z,15.8
2019-01-23T06:15:21.661Z,16
2019-01-23T06:16:23.289Z,15.9
2019-01-23T06:17:25.434Z,15.9
2019-01-23T06:18:27.605Z,15.9
2019-01-23T06:19:30.058Z,15.9
2019-01-23T06:20:32.582Z,15.9
2019-01-23T06:21:35.015Z,16
2019-01-23T06:22:37.437Z,15.8
2019-01-23T06:23:39.862Z,15.9
2019-01-23T06:24:42.287Z,15.8
2019-01-23T06:25:44.713Z,15.8
2019-01-23T06:26:47.136Z,16.1
2019-01-23T06:27:49.294Z,15.8
2019-01-23T06:28:51.727Z,15.8
2019-01-23T06:29:53.892Z,16.1
2019-01-23T06:30:56.048Z,15.9
2019-01-23T06:31:58.194Z,15.9
2019-01-23T06:33:00.357Z,15.9
2019-01-23T06:34:02.537Z,15.9
2019-01-23T06:35:04.703Z,15.8
2019-01-23T06:36:06.855Z,15.9
2019-01-23T06:37:09.028Z,15.9
2019-01-23T06:38:11.196Z,15.9
2019-01-23T06:39:13.616Z,15.9
2019-01-23T06:40:15.772Z,15.8
2019-01-23T06:41:17.910Z,16
2019-01-23T06:42:20.344Z,16
2019-01-23T06:43:22.774Z,15.9
2019-01-23T06:44:24.903Z,15.8
2019-01-23T06:45:26.796Z,15.8
2019-01-23T06:46:29.212Z,15.8
2019-01-23T06:47:30.835Z,15.8
2019-01-23T06:48:33.000Z,15.8
2019-01-23T06:49:35.430Z,15.8
2019-01-23T06:50:37.578Z,15.8
2019-01-23T06:51:40.025Z,15.8
2019-01-23T06:52:42.188Z,16
2019-01-23T06:53:44.336Z,15.9
2019-01-23T06:54:46.526Z,15.8
2019-01-23T06:55:48.706Z,15.8
2019-01-23T06:56:51.130Z,16
2019-01-23T06:57:53.570Z,15.9
2019-01-23T06:58:56.003Z,15.8
2019-01-23T06:59:57.868Z,15.9
2019-01-23T07:01:00.560Z,15.8
2019-01-23T07:02:02.725Z,15.9
2019-01-23T07:03:05.157Z,15.9
2019-01-23T07:04:07.583Z,15.8
2019-01-23T07:05:09.757Z,15.9
2019-01-23T07:06:11.896Z,15.8
2019-01-23T07:07:14.044Z,15.8
2019-01-23T07:08:16.213Z,15.8
2019-01-23T07:09:18.380Z,15.9
2019-01-23T07:10:20.573Z,15.8
2019-01-23T07:11:22.996Z,15.8
2019-01-23T07:12:25.144Z,15.8
2019-01-23T07:13:28.758Z,15.8
2019-01-23T07:14:30.968Z,15.8
2019-01-23T07:15:33.388Z,15.8
2019-01-23T07:16:35.814Z,15.9
2019-01-23T07:17:38.256Z,15.8
2019-01-23T07:18:40.681Z,15.8
2019-01-23T07:19:43.104Z,15.8
2019-01-23T07:20:45.529Z,15.9
2019-01-23T07:21:47.957Z,15.8
2019-01-23T07:22:50.414Z,15.8
2019-01-23T07:23:52.564Z,15.9
2019-01-23T07:24:54.995Z,15.8
2019-01-23T07:25:57.162Z,15.7
2019-01-23T07:26:59.338Z,15.8
2019-01-23T07:28:01.772Z,15.8
2019-01-23T07:29:04.196Z,15.9
2019-01-23T07:30:06.632Z,15.9
2019-01-23T07:31:08.796Z,15.8
2019-01-23T07:32:10.691Z,15.8
2019-01-23T07:33:12.835Z,15.8
2019-01-23T07:34:15.266Z,15.8
2019-01-23T07:35:17.704Z,15.9
2019-01-23T07:36:20.160Z,15.8
2019-01-23T07:37:22.346Z,15.8
2019-01-23T07:38:24.786Z,15.8
2019-01-23T07:39:27.232Z,15.8
2019-01-23T07:40:29.663Z,15.8
2019-01-23T07:41:31.821Z,15.8
2019-01-23T07:42:34.280Z,15.8
2019-01-23T07:43:36.448Z,15.8
2019-01-23T07:44:38.596Z,15.8
2019-01-23T07:45:40.752Z,15.9
2019-01-23T07:46:42.908Z,15.7
2019-01-23T07:47:45.359Z,15.8
2019-01-23T07:48:47.770Z,15.8
2019-01-23T07:49:49.925Z,15.9
2019-01-23T07:50:51.786Z,15.8
2019-01-23T07:51:54.212Z,15.7
2019-01-23T07:52:56.653Z,15.8
2019-01-23T07:53:59.077Z,15.8
2019-01-23T07:55:00.949Z,15.8
2019-01-23T07:56:02.825Z,15.9
2019-01-23T07:57:05.260Z,15.8
2019-01-23T07:58:07.404Z,15.8
2019-01-23T07:59:10.501Z,15.8
2019-01-23T08:00:12.936Z,15.8
2019-01-23T08:01:15.368Z,15.8
2019-01-23T08:02:17.796Z,15.8
2019-01-23T08:03:19.677Z,15.8
2019-01-23T08:04:22.102Z,15.9
2019-01-23T08:05:24.527Z,15.8
2019-01-23T08:06:26.674Z,15.8
2019-01-23T08:07:28.832Z,15.8
2019-01-23T08:08:31.253Z,15.8
2019-01-23T08:09:33.768Z,15.8
2019-01-23T08:10:36.192Z,15.8
2019-01-23T08:11:38.355Z,15.8
2019-01-23T08:12:40.785Z,15.7
2019-01-23T08:13:42.997Z,15.8
2019-01-23T08:14:45.491Z,15.8
2019-01-23T08:15:47.932Z,15.8
2019-01-23T08:16:50.366Z,15.8
2019-01-23T08:17:52.543Z,15.7
2019-01-23T08:18:54.947Z,15.7
2019-01-23T08:19:57.380Z,15.8
2019-01-23T08:20:59.814Z,15.7
2019-01-23T08:22:01.983Z,15.8
2019-01-23T08:23:04.231Z,15.8
2019-01-23T08:24:06.655Z,15.8
2019-01-23T08:25:08.808Z,15.8
2019-01-23T08:26:10.952Z,15.8
2019-01-23T08:27:13.087Z,15.8
2019-01-23T08:28:15.506Z,15.8
2019-01-23T08:29:17.935Z,15.8
2019-01-23T08:30:19.808Z,15.7
2019-01-23T08:31:22.245Z,15.8
2019-01-23T08:32:24.409Z,15.8
2019-01-23T08:33:26.854Z,15.8
2019-01-23T08:34:29.000Z,15.8
2019-01-23T08:35:31.162Z,15.8
2019-01-23T08:36:33.595Z,15.8
2019-01-23T08:37:36.030Z,15.8
2019-01-23T08:38:38.462Z,15.8
2019-01-23T08:39:40.885Z,15.8
2019-01-23T08:40:43.306Z,15.7
2019-01-23T08:41:45.478Z,15.8
2019-01-23T08:42:47.915Z,15.8
2019-01-23T08:43:50.338Z,15.8
2019-01-23T08:44:52.756Z,15.8
2019-01-23T08:45:55.190Z,15.8
2019-01-23T08:46:57.326Z,15.8
2019-01-23T08:47:59.743Z,15.8
2019-01-23T08:49:01.622Z,15.8
2019-01-23T08:50:04.044Z,15.8
2019-01-23T08:51:06.206Z,15.8
2019-01-23T08:52:08.364Z,15.9
2019-01-23T08:53:10.784Z,15.7
2019-01-23T08:54:13.235Z,15.8
2019-01-23T08:55:15.660Z,15.8
2019-01-23T08:56:17.812Z,15.7
2019-01-23T08:57:19.991Z,15.8
2019-01-23T08:58:22.151Z,15.8
2019-01-23T08:59:24.582Z,15.8
2019-01-23T09:00:26.463Z,15.8
2019-01-23T09:01:28.906Z,15.8
2019-01-23T09:02:31.334Z,15.8
2019-01-23T09:03:33.762Z,15.8
2019-01-23T09:04:35.914Z,15.8
2019-01-23T09:05:38.341Z,15.8
2019-01-23T09:06:40.764Z,15.8
2019-01-23T09:07:43.190Z,15.8
2019-01-23T09:08:45.604Z,15.8
2019-01-23T09:09:47.788Z,15.8
2019-01-23T09:10:49.940Z,15.8
2019-01-23T09:11:52.355Z,15.8
2019-01-23T09:12:54.486Z,15.8
2019-01-23T09:13:56.903Z,15.8
2019-01-23T09:14:59.074Z,15.8
2019-01-23T09:16:01.207Z,15.8
2019-01-23T09:17:03.365Z,15.8
2019-01-23T09:18:06.993Z,15.7
2019-01-23T09:19:09.258Z,15.8
2019-01-23T09:20:11.695Z,15.8
2019-01-23T09:21:13.321Z,15.8
2019-01-23T09:22:15.476Z,15.7
2019-01-23T09:23:17.647Z,15.7
2019-01-23T09:24:20.075Z,15.8
2019-01-23T09:25:22.232Z,15.8
2019-01-23T09:26:24.362Z,15.8
2019-01-23T09:27:26.505Z,15.8
2019-01-23T09:28:28.956Z,15.7
2019-01-23T09:29:30.836Z,15.7
2019-01-23T09:30:33.261Z,15.8
2019-01-23T09:31:35.686Z,15.8
2019-01-23T09:32:37.844Z,15.7
2019-01-23T09:33:40.269Z,15.7
2019-01-23T09:34:42.695Z,15.8
2019-01-23T09:35:45.124Z,15.7
2019-01-23T09:36:47.261Z,15.8
2019-01-23T09:37:49.423Z,15.8
2019-01-23T09:38:51.846Z,15.7
2019-01-23T09:39:53.994Z,15.8
2019-01-23T09:40:56.433Z,15.7
2019-01-23T09:41:58.303Z,15.7
2019-01-23T09:43:00.176Z,15.8
2019-01-23T09:44:02.637Z,15.8
2019-01-23T09:45:05.057Z,15.8
2019-01-23T09:46:07.490Z,15.8
2019-01-23T09:47:09.630Z,15.7
2019-01-23T09:48:11.768Z,15.7
2019-01-23T09:49:14.193Z,15.8
2019-01-23T09:50:16.063Z,15.8
2019-01-23T09:51:18.480Z,15.8
2019-01-23T09:52:20.644Z,15.7
2019-01-23T09:53:23.086Z,15.8
2019-01-23T09:54:25.540Z,15.8
2019-01-23T09:55:27.944Z,15.8
2019-01-23T09:56:30.367Z,15.8
2019-01-23T09:57:32.780Z,15.8
2019-01-23T09:58:35.226Z,15.7
2019-01-23T09:59:37.073Z,15.7
2019-01-23T10:00:38.929Z,15.7
2019-01-23T10:01:41.083Z,15.8
2019-01-23T10:02:43.517Z,15.8
2019-01-23T10:03:45.945Z,15.7
2019-01-23T10:04:48.376Z,15.7
2019-01-23T10:05:50.814Z,15.8
2019-01-23T10:06:52.965Z,15.7
2019-01-23T10:07:55.406Z,15.7
2019-01-23T10:08:57.686Z,15.7
2019-01-23T10:09:59.578Z,15.8
2019-01-23T10:11:01.750Z,15.7
2019-01-23T10:12:04.227Z,15.8
2019-01-23T10:13:06.133Z,15.8
2019-01-23T10:14:08.564Z,15.8
2019-01-23T10:15:10.734Z,15.7
2019-01-23T10:16:13.170Z,15.7
2019-01-23T10:17:15.591Z,15.6
2019-01-23T10:18:17.765Z,15.8
2019-01-23T10:19:20.201Z,15.8
2019-01-23T10:20:22.645Z,15.7
2019-01-23T10:21:24.797Z,15.8
2019-01-23T10:22:26.945Z,15.7
2019-01-23T10:23:28.805Z,15.8
2019-01-23T10:25:36.203Z,15.8
2019-01-23T10:26:38.632Z,15.7
2019-01-23T10:27:40.791Z,15.7
2019-01-23T10:28:42.960Z,15.8
2019-01-23T10:29:45.117Z,15.7
2019-01-23T10:30:47.269Z,15.7
2019-01-23T10:31:49.712Z,15.6
2019-01-23T10:32:51.856Z,15.7
2019-01-23T10:33:54.275Z,15.8
2019-01-23T10:34:56.441Z,15.8
2019-01-23T10:35:58.328Z,15.7
2019-01-23T10:37:00.743Z,15.8
2019-01-23T10:38:03.189Z,15.7
2019-01-23T10:39:05.337Z,15.7
2019-01-23T10:40:07.769Z,15.8
2019-01-23T10:41:10.197Z,15.7
2019-01-23T10:42:12.350Z,15.7
2019-01-23T10:43:14.779Z,15.8
2019-01-23T10:44:17.231Z,15.8
2019-01-23T10:45:19.664Z,15.7
2019-01-23T10:46:22.084Z,15.7
2019-01-23T10:47:24.496Z,15.7
2019-01-23T10:48:26.660Z,15.7
2019-01-23T10:49:28.531Z,15.7
2019-01-23T10:50:30.699Z,15.8
2019-01-23T10:51:32.860Z,15.7
2019-01-23T10:52:35.298Z,15.8
2019-01-23T10:53:37.734Z,15.7
2019-01-23T10:54:39.646Z,15.8
2019-01-23T10:55:42.072Z,15.8
2019-01-23T10:56:44.502Z,15.7
2019-01-23T10:57:46.658Z,15.7
2019-01-23T10:58:48.288Z,15.7
2019-01-23T10:59:50.441Z,15.8
2019-01-23T11:00:52.873Z,15.8
2019-01-23T11:01:55.046Z,15.7
2019-01-23T11:02:57.176Z,15.8
2019-01-23T11:03:59.618Z,15.8
2019-01-23T11:05:01.777Z,15.8
2019-01-23T11:06:04.206Z,15.7
2019-01-23T11:07:06.362Z,15.8
2019-01-23T11:08:08.799Z,15.6
2019-01-23T11:09:10.987Z,15.8
2019-01-23T11:10:13.499Z,15.7
2019-01-23T11:11:15.921Z,15.7
2019-01-23T11:12:18.357Z,15.7
2019-01-23T11:13:20.529Z,15.8
2019-01-23T11:14:22.696Z,15.8
2019-01-23T11:15:24.867Z,15.7
2019-01-23T11:16:27.291Z,15.7
2019-01-23T11:17:29.661Z,15.7
2019-01-23T11:18:32.087Z,15.7
2019-01-23T11:19:34.515Z,15.7
2019-01-23T11:20:36.944Z,15.7
2019-01-23T11:21:39.389Z,15.7
2019-01-23T11:22:41.814Z,15.7
2019-01-23T11:23:44.260Z,15.7
2019-01-23T11:24:46.697Z,15.7
2019-01-23T11:25:49.136Z,15.8
2019-01-23T11:26:51.576Z,15.7
2019-01-23T11:27:53.999Z,15.8
2019-01-23T11:28:55.902Z,15.7
2019-01-23T11:29:58.358Z,15.7
2019-01-23T11:31:00.803Z,15.7
2019-01-23T11:32:02.964Z,15.7
2019-01-23T11:33:05.125Z,15.7
2019-01-23T11:34:07.567Z,15.8
2019-01-23T11:35:10.012Z,15.7
2019-01-23T11:36:12.453Z,15.7
2019-01-23T11:37:14.885Z,15.7
2019-01-23T11:38:17.350Z,15.7
2019-01-23T11:39:19.796Z,15.7
2019-01-23T11:40:21.956Z,15.7
2019-01-23T11:41:23.592Z,15.7
2019-01-23T11:42:25.745Z,15.8
2019-01-23T11:43:27.903Z,15.7
2019-01-23T11:44:30.074Z,15.7
2019-01-23T11:45:32.510Z,15.7
2019-01-23T11:46:34.934Z,15.7
2019-01-23T11:47:37.375Z,15.7
2019-01-23T11:48:39.808Z,15.6
2019-01-23T11:49:42.243Z,15.6
2019-01-23T11:50:44.387Z,15.8
2019-01-23T11:51:46.808Z,15.7
2019-01-23T11:52:49.237Z,15.7
2019-01-23T11:53:51.409Z,15.7
2019-01-23T11:54:53.836Z,15.7
2019-01-23T11:55:56.016Z,15.7
2019-01-23T11:56:57.889Z,15.7
2019-01-23T11:58:00.064Z,15.7
2019-01-23T11:59:02.266Z,15.7
2019-01-23T12:00:04.807Z,15.7
2019-01-23T12:01:07.443Z,15.7
2019-01-23T12:02:09.637Z,15.7
2019-01-23T12:03:12.114Z,15.8
2019-01-23T12:04:14.586Z,15.7
2019-01-23T12:05:16.186Z,15.7
2019-01-23T12:06:19.137Z,15.7
2019-01-23T12:07:21.596Z,15.8
2019-01-23T12:08:24.031Z,15.7
2019-01-23T12:09:26.471Z,15.7
2019-01-23T12:10:28.355Z,15.7
2019-01-23T12:11:30.505Z,15.7
2019-01-23T12:12:32.654Z,15.7
2019-01-23T12:13:34.811Z,15.7
2019-01-23T12:14:36.813Z,15.7
2019-01-23T12:15:41.630Z,15.7
2019-01-23T12:16:44.202Z,15.6
2019-01-23T12:17:46.640Z,15.7
2019-01-23T12:18:49.086Z,15.7
2019-01-23T12:19:50.999Z,15.7
2019-01-23T12:20:53.430Z,15.8
2019-01-23T12:21:55.591Z,15.8
2019-01-23T12:22:57.755Z,15.7
2019-01-23T12:24:00.215Z,15.8
2019-01-23T12:25:02.419Z,15.7
2019-01-23T12:26:04.888Z,15.8
2019-01-23T12:27:07.396Z,15.7
2019-01-23T12:28:09.855Z,15.7
2019-01-23T12:29:11.900Z,15.6
2019-01-23T12:30:14.354Z,15.7
2019-01-23T12:31:16.711Z,15.7
2019-01-23T12:32:19.278Z,15.7
2019-01-23T12:33:21.249Z,15.8
2019-01-23T12:34:23.440Z,15.7
2019-01-23T12:35:25.348Z,15.7
2019-01-23T12:36:27.544Z,15.7
2019-01-23T12:37:29.733Z,15.6
2019-01-23T12:38:31.940Z,15.7
2019-01-23T12:39:33.808Z,15.7
2019-01-23T12:40:35.982Z,15.8
2019-01-23T12:41:37.891Z,15.7
2019-01-23T12:42:40.388Z,15.7
2019-01-23T12:43:42.889Z,15.7
2019-01-23T12:44:45.394Z,15.7
2019-01-23T12:45:48.146Z,15.7
2019-01-23T12:46:50.743Z,15.6
2019-01-23T12:47:53.030Z,15.6
2019-01-23T12:48:55.578Z,15.7
2019-01-23T12:49:57.764Z,15.7
2019-01-23T12:51:00.207Z,15.7
2019-01-23T12:52:02.409Z,15.7
2019-01-23T12:53:04.908Z,15.8
2019-01-23T12:54:07.344Z,15.7
2019-01-23T12:55:09.937Z,15.7
2019-01-23T12:56:11.841Z,15.6
2019-01-23T12:57:14.429Z,15.8
2019-01-23T12:58:17.102Z,15.7
2019-01-23T12:59:19.883Z,15.7
2019-01-23T13:00:22.135Z,15.7
2019-01-23T13:01:24.765Z,15.7
2019-01-23T13:02:27.348Z,15.6
2019-01-23T13:03:29.806Z,15.8
2019-01-23T13:04:32.248Z,15.7
2019-01-23T13:05:34.705Z,15.7
2019-01-23T13:06:37.164Z,15.7
2019-01-23T13:07:39.436Z,15.7
2019-01-23T13:08:42.026Z,15.8
2019-01-23T13:09:44.579Z,15.7
2019-01-23T13:10:47.140Z,15.8
2019-01-23T13:11:49.629Z,15.8
2019-01-23T13:12:52.094Z,15.7
2019-01-23T13:13:54.555Z,15.6
2019-01-23T13:14:57.043Z,15.6
2019-01-23T13:15:59.704Z,15.7
2019-01-23T13:17:02.293Z,15.7
2019-01-23T13:18:04.270Z,15.7
2019-01-23T13:19:06.753Z,15.7
2019-01-23T13:20:09.229Z,15.6
2019-01-23T13:21:11.750Z,15.7
2019-01-23T13:22:14.189Z,15.6
2019-01-23T13:24:21.361Z,15.8
2019-01-23T13:25:23.607Z,15.6
2019-01-23T13:26:26.113Z,15.7
2019-01-23T13:27:28.091Z,15.7
2019-01-23T13:28:30.682Z,15.6
2019-01-23T13:29:33.192Z,15.8
2019-01-23T13:30:35.647Z,15.8
2019-01-23T13:31:37.866Z,15.7
2019-01-23T13:32:40.396Z,15.7
2019-01-23T13:33:42.586Z,15.7
2019-01-23T13:34:45.023Z,15.7
2019-01-23T13:35:47.450Z,15.7
2019-01-23T13:36:49.316Z,15.6
2019-01-23T13:37:51.207Z,15.6
2019-01-23T13:38:53.390Z,15.7
2019-01-23T13:39:55.842Z,15.7
2019-01-23T13:40:58.057Z,15.8
2019-01-23T13:42:00.238Z,15.6
2019-01-23T13:43:01.874Z,15.8
2019-01-23T13:44:04.070Z,15.6
2019-01-23T13:45:06.606Z,15.6
2019-01-23T13:46:09.175Z,15.7
2019-01-23T13:47:11.751Z,15.7
2019-01-23T13:48:14.207Z,15.6
2019-01-23T13:49:16.077Z,15.7
2019-01-23T13:50:18.286Z,15.7
2019-01-23T13:51:20.172Z,15.7
2019-01-23T13:52:22.605Z,15.7
2019-01-23T13:53:24.780Z,15.7
2019-01-23T13:54:26.977Z,15.8
2019-01-23T13:55:29.193Z,15.7
2019-01-23T13:56:31.499Z,15.8